Terminal Aerodrome Forecast
Issued by NWS Wilmington, NC

Home | Current Version | Previous Version | Text Only | Print | Product List | Glossary On
Versions: 1 2 3 4 5 6 7 8 9 10 11 12 13 14 15 16 17
000
FTUS42 KILM 222300
TAFMYR
TAF
KMYR 222323Z 2300/2324 21005KT P6SM FEW050 SCT250
     FM231300 33005KT P6SM FEW020 BKN200
     FM231800 11008KT P6SM VCSH SCT040 BKN150
      AMD LTD TO CLD VIS AND WIND 2304/2311=

USA.gov is the U.S. government's official web portal to all federal, state and local government web resources and services.